createdAt,value
2019-05-17T04:39:23.702Z,51.80
2019-05-17T04:41:54.764Z,51.10
2019-05-17T04:44:24.405Z,50.40
2019-05-17T04:46:54.835Z,50.30
2019-05-17T04:49:24.242Z,49.50
2019-05-17T04:51:54.055Z,49.20
2019-05-17T04:54:26.082Z,48.90
2019-05-17T04:56:56.161Z,48.90
2019-05-17T04:59:25.702Z,48.60
2019-05-17T05:01:55.687Z,48.20
2019-05-17T05:04:24.943Z,47.90
2019-05-17T05:06:55.744Z,47.50
2019-05-17T05:09:26.229Z,46.80
2019-05-17T05:12:01.443Z,46.60
2019-05-17T05:14:26.991Z,46.40
2019-05-17T05:16:57.440Z,45.90
2019-05-17T05:19:28.128Z,45.70
2019-05-17T05:21:57.054Z,45.40
2019-05-17T05:24:26.459Z,45.30
2019-05-17T05:26:56.050Z,44.90
2019-05-17T05:29:26.277Z,43.90
2019-05-17T05:31:55.025Z,43.50
2019-05-17T05:34:24.509Z,43.30
2019-05-17T05:36:53.785Z,42.90
2019-05-17T05:39:23.434Z,42.30
2019-05-17T05:42:06.124Z,42.30
2019-05-17T05:44:24.278Z,41.90
2019-05-17T05:46:53.036Z,41.70
2019-05-17T05:49:23.257Z,41.30
2019-05-17T05:51:52.398Z,41.00
2019-05-17T05:54:24.323Z,40.30
2019-05-17T05:56:53.046Z,40.10
2019-05-17T05:59:22.425Z,39.90
2019-05-17T06:01:52.526Z,39.70
2019-05-17T06:04:22.337Z,39.50
2019-05-17T06:06:52.216Z,38.50
2019-05-17T06:09:22.355Z,38.00
2019-05-17T06:11:51.950Z,38.00
2019-05-17T06:14:21.644Z,37.90
2019-05-17T06:16:52.034Z,37.50
2019-05-17T06:19:22.397Z,36.90
2019-05-17T06:21:52.011Z,36.70
2019-05-17T06:24:22.533Z,36.00
2019-05-17T06:26:52.527Z,36.20
2019-05-17T06:29:22.164Z,36.20
2019-05-17T06:31:56.327Z,36.50
2019-05-17T06:34:25.514Z,36.80
2019-05-17T06:36:54.921Z,36.30
2019-05-17T06:39:23.711Z,35.50
2019-05-17T06:41:53.211Z,35.30
2019-05-17T06:44:22.435Z,34.90
2019-05-17T06:46:52.023Z,34.60
2019-05-17T06:49:22.459Z,34.80
2019-05-17T06:51:51.956Z,34.80
2019-05-17T06:54:21.574Z,34.70
2019-05-17T06:56:52.569Z,34.80
2019-05-17T06:59:21.201Z,34.20
2019-05-17T07:01:50.357Z,33.80
2019-05-17T07:04:21.154Z,33.90
2019-05-17T07:07:10.823Z,34.20
2019-05-17T07:09:40.186Z,34.20
2019-05-17T07:12:10.498Z,33.80
2019-05-17T07:14:41.001Z,33.20
2019-05-17T07:17:10.222Z,33.30
2019-05-17T07:19:40.507Z,32.80
2019-05-17T07:22:09.878Z,32.50
2019-05-17T07:24:39.968Z,31.70
2019-05-17T07:27:10.900Z,32.10
2019-05-17T07:29:40.428Z,32.50
2019-05-17T07:32:09.833Z,32.50
2019-05-17T07:34:40.202Z,33.00
2019-05-17T07:37:10.479Z,32.40
2019-05-17T07:39:42.162Z,32.50
2019-05-17T07:42:09.941Z,31.70
2019-05-17T07:44:40.273Z,32.00
2019-05-17T07:47:09.759Z,32.50
2019-05-17T07:49:40.494Z,32.40
2019-05-17T07:52:10.322Z,32.30
2019-05-17T07:54:39.908Z,32.40
2019-05-17T07:57:10.391Z,31.50
2019-05-17T07:59:39.718Z,31.80
2019-05-17T08:02:10.654Z,31.50
2019-05-17T08:04:40.682Z,30.50
2019-05-17T08:07:10.833Z,30.60
2019-05-17T08:09:42.034Z,30.30
2019-05-17T08:12:12.089Z,30.10
2019-05-17T08:14:42.266Z,30.10
2019-05-17T08:17:12.403Z,29.60
2019-05-17T08:19:41.456Z,29.70
2019-05-17T08:22:10.427Z,28.90
2019-05-17T08:24:39.969Z,28.80
2019-05-17T08:27:10.364Z,28.80
2019-05-17T08:29:40.992Z,28.60
2019-05-17T08:32:09.873Z,26.70
2019-05-17T08:34:40.094Z,26.90
2019-05-17T08:37:09.490Z,26.90
2019-05-17T08:39:39.991Z,27.10
2019-05-17T08:42:09.806Z,26.40
2019-05-17T08:44:39.400Z,26.60
2019-05-17T08:47:10.066Z,27.00
2019-05-17T08:49:40.411Z,26.50
2019-05-17T08:52:09.906Z,26.80
2019-05-17T08:54:42.728Z,26.70
2019-05-17T08:57:22.217Z,27.00
2019-05-17T08:59:50.926Z,27.00
2019-05-17T09:02:20.048Z,27.90
2019-05-17T09:04:50.542Z,26.60
2019-05-17T09:07:20.436Z,25.90
2019-05-17T09:09:50.126Z,25.20
2019-05-17T09:12:20.657Z,25.10
2019-05-17T09:14:50.247Z,25.70
2019-05-17T09:17:19.587Z,25.70
2019-05-17T09:19:50.485Z,25.20
2019-05-17T09:22:19.802Z,25.40
2019-05-17T09:24:50.107Z,25.00
2019-05-17T09:27:19.816Z,24.60
2019-05-17T09:29:49.832Z,24.00
2019-05-17T09:32:20.167Z,23.90
2019-05-17T09:34:49.863Z,24.40
2019-05-17T09:37:22.355Z,24.70
2019-05-17T09:39:49.431Z,24.70
2019-05-17T09:42:20.793Z,24.90
2019-05-17T09:44:49.656Z,25.20
2019-05-17T09:47:20.633Z,25.40
2019-05-17T09:49:51.297Z,25.40
2019-05-17T09:52:22.142Z,25.30
2019-05-17T09:54:51.034Z,25.60
2019-05-17T09:57:20.469Z,25.50
2019-05-17T09:59:49.666Z,24.90
2019-05-17T10:02:20.520Z,24.40
2019-05-17T10:04:50.276Z,24.70
2019-05-17T10:07:20.816Z,24.70
2019-05-17T10:09:52.048Z,24.80
2019-05-17T10:12:21.739Z,24.90
2019-05-17T10:14:53.162Z,24.80
2019-05-17T10:17:22.096Z,24.70
2019-05-17T10:19:51.103Z,24.60
2019-05-17T10:22:21.844Z,24.70
2019-05-17T10:24:50.483Z,24.30
2019-05-17T10:27:19.662Z,23.80
2019-05-17T10:29:50.078Z,23.40
2019-05-17T10:32:20.700Z,22.20
2019-05-17T10:34:49.607Z,22.00
2019-05-17T10:37:20.381Z,21.60
2019-05-17T10:39:50.478Z,21.50
2019-05-17T10:42:21.006Z,20.80
2019-05-17T10:44:54.243Z,20.70
2019-05-17T10:47:21.535Z,20.90
2019-05-17T10:49:50.365Z,21.00
2019-05-17T10:52:20.334Z,21.70
2019-05-17T10:54:49.562Z,22.30
2019-05-17T10:57:20.206Z,23.00
2019-05-17T10:59:50.046Z,23.70
2019-05-17T11:02:19.743Z,24.20
2019-05-17T11:04:50.587Z,25.10
2019-05-17T11:07:20.482Z,25.10
2019-05-17T11:09:52.170Z,25.30
2019-05-17T11:12:21.481Z,25.40
2019-05-17T11:15:09.392Z,24.90
2019-05-17T11:17:21.503Z,25.00
2019-05-17T11:20:02.223Z,25.50
2019-05-17T11:22:31.135Z,25.50
2019-05-17T11:25:02.595Z,25.60
2019-05-17T11:27:31.507Z,25.20
2019-05-17T11:30:00.278Z,25.10
2019-05-17T11:32:30.542Z,24.30
2019-05-17T11:34:59.350Z,24.40
2019-05-17T11:37:28.157Z,23.00
2019-05-17T11:39:56.880Z,24.00
2019-05-17T11:42:25.673Z,24.40
2019-05-17T11:44:56.336Z,24.70
2019-05-17T11:47:24.794Z,23.80
2019-05-17T11:50:30.515Z,22.80
2019-05-17T11:53:21.652Z,22.10
2019-05-17T11:56:04.041Z,22.20
2019-05-17T11:58:35.386Z,22.50
2019-05-17T12:04:01.143Z,23.10
2019-05-17T12:06:31.028Z,23.30
2019-05-17T12:12:03.761Z,24.20
2019-05-17T12:14:32.592Z,23.90
2019-05-17T12:17:01.381Z,23.80
2019-05-17T12:19:30.299Z,22.90
2019-05-17T12:22:00.955Z,22.70
2019-05-17T12:24:31.089Z,23.10
2019-05-17T12:26:59.972Z,23.90
2019-05-17T12:29:28.807Z,24.60
2019-05-17T12:31:59.259Z,25.10
2019-05-17T12:34:28.034Z,25.60
2019-05-17T12:36:56.881Z,26.50
2019-05-17T12:40:01.128Z,26.90
2019-05-17T12:42:30.361Z,27.60
2019-05-17T12:45:18.634Z,27.90
2019-05-17T12:47:57.207Z,28.10
2019-05-17T12:53:43.459Z,28.80
2019-05-17T12:56:12.654Z,29.30
2019-05-17T12:58:41.805Z,29.70
2019-05-17T13:01:11.638Z,29.80
2019-05-17T13:03:42.500Z,29.50
2019-05-17T13:06:11.492Z,29.40
2019-05-17T13:08:40.524Z,29.90
2019-05-17T13:11:10.159Z,30.20
2019-05-17T13:13:41.329Z,30.40
2019-05-17T13:16:17.949Z,30.60
2019-05-17T13:18:42.335Z,30.70
2019-05-17T13:21:12.270Z,30.80
2019-05-17T13:23:44.914Z,31.30
2019-05-17T13:26:17.507Z,31.40
2019-05-17T13:28:46.631Z,31.00
2019-05-17T13:31:16.516Z,31.00
2019-05-17T13:33:47.296Z,31.00
2019-05-17T13:36:17.220Z,31.40
2019-05-17T13:38:48.505Z,31.40
2019-05-17T13:41:17.330Z,31.60
2019-05-17T13:43:47.275Z,31.90
2019-05-17T13:46:16.124Z,31.90
2019-05-17T13:48:46.249Z,31.50
2019-05-17T13:51:15.524Z,31.30
2019-05-17T13:53:45.436Z,31.10
2019-05-17T13:56:15.296Z,30.80
2019-05-17T13:58:44.085Z,30.90
2019-05-17T14:01:13.024Z,30.60
2019-05-17T14:03:43.788Z,30.40
2019-05-17T14:06:14.647Z,30.30
2019-05-17T14:08:43.456Z,30.70
2019-05-17T14:11:13.822Z,30.60
2019-05-17T14:13:42.606Z,30.60
2019-05-17T14:16:12.447Z,30.60
2019-05-17T14:18:41.626Z,30.90
2019-05-17T14:21:11.517Z,30.40
2019-05-17T14:23:41.282Z,30.20
2019-05-17T14:26:11.704Z,30.00
2019-05-17T14:28:45.502Z,29.50
2019-05-17T14:31:14.688Z,29.30
2019-05-17T14:33:45.190Z,29.10
2019-05-17T14:36:14.114Z,28.80
2019-05-17T14:38:43.023Z,28.60
2019-05-17T14:41:13.305Z,28.10
2019-05-17T14:43:43.236Z,28.20
2019-05-17T14:46:12.449Z,28.60
2019-05-17T14:48:43.268Z,28.20
2019-05-17T14:51:12.499Z,27.40
2019-05-17T14:53:43.287Z,26.70
2019-05-17T14:56:13.724Z,27.00
2019-05-17T14:58:42.766Z,27.20
2019-05-17T15:01:17.417Z,27.10
2019-05-17T15:03:51.328Z,26.40
2019-05-17T15:06:55.973Z,26.10
2019-05-17T15:09:25.342Z,26.70
2019-05-17T15:11:55.361Z,27.20
2019-05-17T15:14:24.785Z,27.60
2019-05-17T15:16:53.688Z,28.10
2019-05-17T15:22:53.877Z,28.30
2019-05-17T15:25:25.255Z,28.40
2019-05-17T15:27:54.092Z,28.30
2019-05-17T15:30:23.213Z,28.30
2019-05-17T15:32:52.528Z,28.40
2019-05-17T15:35:22.657Z,28.10
2019-05-17T15:37:51.360Z,27.70
2019-05-17T15:40:20.097Z,27.90
2019-05-17T15:42:50.628Z,28.20
2019-05-17T15:45:21.129Z,27.80
2019-05-17T15:47:49.973Z,27.50
2019-05-17T15:50:20.312Z,26.60
2019-05-17T15:52:51.632Z,24.50
2019-05-17T15:55:20.921Z,22.50
2019-05-17T15:57:49.820Z,20.50
2019-05-17T16:00:19.079Z,19.30
2019-05-17T16:02:48.063Z,18.10
2019-05-17T16:05:17.443Z,17.10
2019-05-17T16:07:46.551Z,16.90
2019-05-17T16:10:16.413Z,16.50
2019-05-17T16:13:00.939Z,15.90
2019-05-17T16:15:18.600Z,15.60
2019-05-17T16:17:48.959Z,15.80
2019-05-17T16:20:19.194Z,16.40
2019-05-17T16:22:52.891Z,16.30
2019-05-17T16:25:21.944Z,16.20
2019-05-17T16:27:53.588Z,16.30
2019-05-17T16:30:22.582Z,16.40
2019-05-17T16:32:51.686Z,16.20
2019-05-17T16:35:20.983Z,16.20
2019-05-17T16:37:50.415Z,16.40
2019-05-17T16:40:22.147Z,16.10
2019-05-17T16:42:51.184Z,16.20
2019-05-17T16:45:21.797Z,16.00
2019-05-17T16:47:51.276Z,16.20
2019-05-17T16:50:42.593Z,16.60
2019-05-17T16:53:12.884Z,17.10
2019-05-17T16:55:50.922Z,17.40
2019-05-17T16:58:16.930Z,17.80
2019-05-17T17:00:49.809Z,17.90
2019-05-17T17:03:23.697Z,18.30
2019-05-17T17:05:58.122Z,18.30
2019-05-17T17:08:49.374Z,18.30
2019-05-17T17:11:17.292Z,18.70
2019-05-17T17:13:58.940Z,18.70
2019-05-17T17:16:48.884Z,18.90
2019-05-17T17:19:26.875Z,18.70
2019-05-17T17:21:52.889Z,18.80
2019-05-17T17:24:24.547Z,19.20
2019-05-17T17:26:54.088Z,19.80
2019-05-17T17:29:25.405Z,20.00
2019-05-17T17:31:55.002Z,19.90
2019-05-17T17:34:27.601Z,20.30
2019-05-17T17:36:59.549Z,20.50
2019-05-17T17:39:31.277Z,21.00
2019-05-17T17:42:00.331Z,21.30
2019-05-17T17:44:29.303Z,21.70
2019-05-17T17:46:59.414Z,22.10
2019-05-17T17:49:28.760Z,22.60
2019-05-17T17:55:24.865Z,23.60
2019-05-17T17:57:54.043Z,24.60
2019-05-17T18:00:23.528Z,25.00
2019-05-17T18:02:55.086Z,25.60
2019-05-17T18:05:25.209Z,26.20
2019-05-17T18:07:54.109Z,27.00
2019-05-17T18:10:31.722Z,27.70
2019-05-17T18:13:19.389Z,28.40
2019-05-17T18:15:52.584Z,28.90
2019-05-17T18:18:25.841Z,29.50
2019-05-17T18:23:52.191Z,30.60
2019-05-17T18:26:23.012Z,31.40
2019-05-17T18:28:52.314Z,32.00
2019-05-17T18:31:21.248Z,32.60
2019-05-17T18:40:07.526Z,34.30
2019-05-17T18:42:33.889Z,34.60
2019-05-17T18:45:02.848Z,35.10
2019-05-17T18:47:31.888Z,35.50
2019-05-17T18:51:13.544Z,35.90
2019-05-17T18:52:41.549Z,36.00
2019-05-17T18:55:16.746Z,36.40
2019-05-17T18:57:46.186Z,36.80
2019-05-17T19:00:19.461Z,37.20
2019-05-17T19:02:48.405Z,37.50
2019-05-17T19:05:17.685Z,37.80
2019-05-17T19:07:47.272Z,38.40
2019-05-17T19:10:16.619Z,38.90
2019-05-17T19:12:46.327Z,39.20
2019-05-17T19:15:15.569Z,39.30
2019-05-17T19:17:44.942Z,39.60
2019-05-17T19:20:14.314Z,40.40
2019-05-17T19:22:43.635Z,39.90
2019-05-17T19:25:12.991Z,40.10
2019-05-17T19:27:41.931Z,40.40
2019-05-17T19:30:13.124Z,40.70
2019-05-17T19:32:47.620Z,40.90
2019-05-17T19:35:16.921Z,41.00
2019-05-17T19:37:46.344Z,41.10
2019-05-17T19:40:16.291Z,41.30
2019-05-17T19:42:46.089Z,41.50
2019-05-17T19:45:16.944Z,41.80
2019-05-17T19:47:46.339Z,41.90
2019-05-17T19:50:18.051Z,42.20
2019-05-17T19:52:47.829Z,42.50
2019-05-17T19:55:17.853Z,42.30
2019-05-17T19:57:55.146Z,42.60
2019-05-17T20:00:24.319Z,43.00
2019-05-17T20:05:27.312Z,42.90
2019-05-17T20:07:56.880Z,43.00
2019-05-17T20:10:27.229Z,43.30
2019-05-17T20:12:58.228Z,43.30
2019-05-17T20:15:34.570Z,43.50
2019-05-17T20:18:05.433Z,43.80
2019-05-17T20:20:37.829Z,43.70
